createdAt,value
2022-08-23T00:01:36.340Z,5.20
2022-08-23T00:04:08.144Z,5.25
2022-08-23T00:06:38.020Z,6.13
2022-08-23T00:09:06.509Z,5.85
2022-08-23T00:11:47.732Z,6.20
2022-08-23T00:14:22.581Z,5.77
2022-08-23T00:16:50.462Z,5.82
2022-08-23T00:19:19.931Z,5.35
2022-08-23T00:21:48.625Z,6.10
2022-08-23T00:24:17.184Z,5.50
2022-08-23T00:26:59.270Z,6.35
2022-08-23T00:29:33.502Z,6.70
2022-08-23T00:32:01.808Z,6.70
2022-08-23T00:34:29.467Z,7.32
2022-08-23T00:36:57.494Z,7.20
2022-08-23T00:39:25.632Z,7.20
2022-08-23T00:41:57.975Z,7.37
2022-08-23T00:44:49.294Z,7.00
2022-08-23T00:47:35.890Z,7.68
2022-08-23T00:50:33.192Z,7.45
2022-08-23T00:53:25.374Z,8.10
2022-08-23T00:55:57.577Z,8.38
2022-08-23T00:58:26.197Z,8.53
2022-08-23T01:00:55.982Z,8.80
2022-08-23T01:03:25.419Z,9.30
2022-08-23T01:06:14.772Z,10.02
2022-08-23T01:08:46.071Z,9.50
2022-08-23T01:11:38.038Z,9.98
2022-08-23T01:14:15.826Z,10.13
2022-08-23T01:16:54.376Z,9.77
2022-08-23T01:19:31.624Z,10.23
2022-08-23T01:22:13.591Z,10.05
2022-08-23T01:25:06.265Z,10.20
2022-08-23T01:27:31.535Z,10.18
2022-08-23T01:30:00.669Z,9.95
2022-08-23T01:32:32.489Z,10.70
2022-08-23T01:35:00.381Z,10.68
2022-08-23T01:37:28.310Z,10.95
2022-08-23T01:39:58.979Z,10.57
2022-08-23T01:42:29.011Z,10.70
2022-08-23T01:44:56.899Z,10.52
2022-08-23T01:47:25.024Z,11.10
2022-08-23T01:49:53.099Z,10.98
2022-08-23T01:52:21.393Z,11.12
2022-08-23T01:54:49.282Z,10.52
2022-08-23T01:57:17.724Z,11.12
2022-08-23T01:59:48.479Z,11.60
2022-08-23T02:02:17.060Z,10.80
2022-08-23T02:04:44.952Z,11.18
2022-08-23T02:07:12.513Z,11.27
2022-08-23T02:09:40.365Z,11.38
2022-08-23T02:12:17.347Z,11.60
2022-08-23T02:14:45.581Z,11.70
2022-08-23T02:17:17.883Z,12.10
2022-08-23T02:19:45.622Z,12.18
2022-08-23T02:22:13.285Z,12.60
2022-08-23T02:24:46.892Z,12.07
2022-08-23T02:27:16.004Z,12.18
2022-08-23T02:29:45.500Z,12.93
2022-08-23T02:32:15.753Z,13.00
2022-08-23T02:35:04.639Z,12.40
2022-08-23T02:37:34.500Z,13.02
2022-08-23T02:40:03.982Z,13.35
2022-08-23T02:42:31.730Z,13.43
2022-08-23T02:45:02.579Z,13.05
2022-08-23T02:47:35.244Z,13.35
2022-08-23T02:50:09.264Z,12.65
2022-08-23T02:52:36.720Z,12.73
2022-08-23T02:55:05.394Z,12.10
2022-08-23T02:57:35.191Z,12.70
2022-08-23T03:00:03.718Z,12.82
2022-08-23T03:02:32.711Z,12.52
2022-08-23T03:05:00.685Z,12.32
2022-08-23T03:07:31.412Z,12.93
2022-08-23T03:10:04.953Z,12.85
2022-08-23T03:12:38.527Z,12.60
2022-08-23T03:15:07.498Z,12.88
2022-08-23T03:17:35.828Z,13.15
2022-08-23T03:20:04.775Z,12.02
2022-08-23T03:22:36.301Z,11.85
2022-08-23T03:25:06.902Z,12.13
2022-08-23T03:27:35.824Z,11.87
2022-08-23T03:30:17.953Z,11.88
2022-08-23T03:32:49.520Z,11.57
2022-08-23T03:35:17.499Z,11.18
2022-08-23T03:37:45.313Z,10.90
2022-08-23T03:40:14.071Z,10.82
2022-08-23T03:42:41.564Z,9.77
2022-08-23T03:45:09.553Z,10.38
2022-08-23T03:47:37.393Z,10.73
2022-08-23T03:50:05.847Z,9.88
2022-08-23T03:52:34.214Z,9.13
2022-08-23T03:55:02.141Z,9.77
2022-08-23T03:57:34.152Z,9.10
2022-08-23T04:00:02.263Z,9.40
2022-08-23T04:02:36.158Z,9.33
2022-08-23T04:05:11.431Z,9.63
2022-08-23T04:07:40.963Z,9.32
2022-08-23T04:10:12.848Z,9.97
2022-08-23T04:12:41.338Z,10.77
2022-08-23T04:15:14.371Z,10.10
2022-08-23T04:17:43.010Z,10.60
2022-08-23T04:20:11.255Z,11.55
2022-08-23T04:22:39.190Z,11.57
2022-08-23T04:25:10.118Z,12.27
2022-08-23T04:27:55.270Z,11.93
2022-08-23T04:30:23.215Z,11.95
2022-08-23T04:32:51.592Z,12.50
2022-08-23T04:35:19.379Z,12.32
2022-08-23T04:37:47.355Z,12.32
2022-08-23T04:40:40.371Z,12.68
2022-08-23T04:43:18.661Z,12.60
2022-08-23T04:45:57.577Z,12.55
2022-08-23T04:48:25.973Z,13.52
2022-08-23T04:50:53.598Z,12.73
2022-08-23T04:53:21.305Z,13.60
2022-08-23T04:55:52.567Z,12.80
2022-08-23T04:58:20.616Z,13.50
2022-08-23T05:00:53.027Z,12.37
2022-08-23T05:03:23.682Z,12.37
2022-08-23T05:05:54.043Z,12.45
2022-08-23T05:08:22.474Z,13.17
2022-08-23T05:10:50.319Z,13.35
2022-08-23T05:13:18.151Z,13.23
2022-08-23T05:15:51.167Z,13.02
2022-08-23T05:18:29.443Z,13.02
2022-08-23T05:20:57.666Z,12.95
2022-08-23T05:23:31.994Z,13.00
2022-08-23T05:26:01.998Z,13.30
2022-08-23T05:28:34.966Z,12.90
2022-08-23T05:31:11.501Z,12.97
2022-08-23T05:33:41.146Z,13.02
2022-08-23T05:36:12.803Z,12.98
2022-08-23T05:38:41.372Z,13.07
2022-08-23T05:41:10.331Z,12.23
2022-08-23T05:43:42.810Z,12.07
2022-08-23T05:46:16.148Z,12.97
2022-08-23T05:48:51.031Z,13.20
2022-08-23T05:51:18.947Z,12.90
2022-08-23T05:53:47.694Z,13.13
2022-08-23T05:56:23.788Z,12.75
2022-08-23T05:58:56.624Z,13.32
2022-08-23T06:01:29.159Z,12.90
2022-08-23T06:04:01.452Z,12.87
2022-08-23T06:06:36.388Z,13.70
2022-08-23T06:09:08.324Z,13.38
2022-08-23T06:11:36.736Z,13.38
2022-08-23T06:14:15.630Z,13.57
2022-08-23T06:16:51.694Z,12.80
2022-08-23T06:19:24.135Z,13.15
2022-08-23T06:21:55.886Z,13.00
2022-08-23T06:24:23.988Z,13.25
2022-08-23T06:26:51.993Z,13.65
2022-08-23T06:29:20.269Z,13.25
2022-08-23T06:31:50.835Z,13.47
2022-08-23T06:34:33.755Z,13.13
2022-08-23T06:37:06.130Z,13.37
2022-08-23T06:39:37.653Z,13.17
2022-08-23T06:42:22.228Z,12.87
2022-08-23T06:45:00.900Z,13.02
2022-08-23T06:47:29.325Z,12.88
2022-08-23T06:49:58.566Z,13.45
2022-08-23T06:52:29.793Z,13.83
2022-08-23T06:54:58.652Z,13.50
2022-08-23T06:57:26.570Z,13.23
2022-08-23T06:59:56.064Z,13.10
2022-08-23T07:02:24.895Z,12.93
2022-08-23T07:04:58.915Z,13.90
2022-08-23T07:07:37.551Z,12.32
2022-08-23T07:14:10.935Z,13.32
2022-08-23T07:16:44.698Z,13.93
2022-08-23T07:19:14.966Z,13.52
2022-08-23T07:21:43.829Z,13.93
2022-08-23T07:24:13.835Z,13.45
2022-08-23T07:26:42.766Z,13.32
2022-08-23T07:29:11.754Z,13.30
2022-08-23T07:31:43.671Z,13.73
2022-08-23T07:34:11.900Z,13.13
2022-08-23T07:36:41.486Z,13.15
2022-08-23T07:39:09.962Z,12.55
2022-08-23T07:41:38.870Z,13.32
2022-08-23T07:44:08.914Z,12.90
2022-08-23T07:46:39.800Z,12.40
2022-08-23T07:49:11.273Z,13.40
2022-08-23T07:51:40.304Z,13.13
2022-08-23T08:00:43.535Z,12.30
2022-08-23T08:03:13.754Z,11.20
2022-08-23T08:05:42.037Z,12.03
2022-08-23T08:08:10.196Z,12.37
2022-08-23T08:10:43.946Z,11.68
2022-08-23T08:13:11.561Z,11.77
2022-08-23T08:15:45.819Z,11.73
2022-08-23T08:18:25.872Z,11.02
2022-08-23T08:20:59.494Z,10.32
2022-08-23T08:23:30.495Z,10.80
2022-08-23T08:26:06.639Z,10.07
2022-08-23T08:28:36.918Z,10.32
2022-08-23T08:31:07.247Z,10.57
2022-08-23T08:33:35.435Z,10.10
2022-08-23T08:36:04.944Z,9.67
2022-08-23T08:38:48.506Z,10.00
2022-08-23T08:41:26.640Z,9.60
2022-08-23T08:44:11.947Z,9.05
2022-08-23T08:46:49.405Z,8.80
2022-08-23T08:49:58.387Z,8.70
2022-08-23T08:52:49.885Z,7.43
2022-08-23T08:55:34.956Z,7.07
2022-08-23T08:58:09.132Z,8.20
2022-08-23T09:00:41.474Z,7.85
2022-08-23T09:03:15.242Z,8.13
2022-08-23T09:05:50.601Z,7.07
2022-08-23T09:08:35.220Z,7.30
2022-08-23T09:11:15.997Z,8.00
2022-08-23T09:13:53.902Z,8.00
2022-08-23T09:16:54.867Z,8.35
2022-08-23T09:19:25.823Z,8.52
2022-08-23T09:22:04.433Z,8.27
2022-08-23T09:24:42.239Z,7.95
2022-08-23T09:27:18.389Z,7.80
2022-08-23T09:30:05.442Z,7.00
2022-08-23T09:32:44.118Z,8.00
2022-08-23T09:35:17.721Z,8.13
2022-08-23T09:38:20.141Z,8.20
2022-08-23T09:40:51.427Z,7.97
2022-08-23T09:43:28.271Z,7.20
2022-08-23T09:46:01.973Z,7.07
2022-08-23T09:48:49.253Z,8.23
2022-08-23T09:51:32.624Z,7.63
2022-08-23T09:54:23.714Z,7.30
2022-08-23T09:57:02.909Z,7.40
2022-08-23T09:59:45.631Z,6.93
2022-08-23T10:02:38.307Z,7.53
2022-08-23T10:05:20.824Z,7.70
2022-08-23T10:08:00.995Z,8.10
2022-08-23T10:10:38.936Z,7.73
2022-08-23T10:13:07.802Z,7.65
2022-08-23T10:16:06.794Z,7.28
2022-08-23T10:18:51.492Z,7.55
2022-08-23T10:21:42.692Z,7.60
2022-08-23T10:24:43.778Z,6.80
2022-08-23T10:27:38.981Z,7.30
2022-08-23T10:30:12.822Z,7.12
2022-08-23T10:33:01.122Z,6.87
2022-08-23T10:35:51.731Z,7.50
2022-08-23T10:38:40.393Z,7.10
2022-08-23T10:41:22.424Z,7.70
2022-08-23T10:43:53.967Z,7.78
2022-08-23T10:46:26.174Z,7.78
2022-08-23T10:48:58.162Z,7.80
2022-08-23T10:51:32.389Z,7.70
2022-08-23T10:54:12.906Z,7.32
2022-08-23T10:56:50.856Z,7.37
2022-08-23T10:59:26.321Z,7.32
2022-08-23T11:02:38.322Z,7.12
2022-08-23T11:05:31.264Z,7.75
2022-08-23T11:08:08.652Z,7.53
2022-08-23T11:10:56.192Z,7.40
2022-08-23T11:13:30.090Z,8.00
2022-08-23T11:16:13.059Z,7.30
2022-08-23T11:18:49.230Z,7.28
2022-08-23T11:21:19.593Z,7.85
2022-08-23T11:23:59.059Z,8.02
2022-08-23T11:26:30.225Z,7.22
2022-08-23T11:29:11.023Z,8.13
2022-08-23T11:31:50.853Z,8.70
2022-08-23T11:34:29.373Z,8.57
2022-08-23T11:37:26.384Z,9.07
2022-08-23T11:39:59.003Z,8.00
2022-08-23T11:42:44.321Z,8.52
2022-08-23T11:45:27.635Z,8.90
2022-08-23T11:48:13.733Z,8.40
2022-08-23T11:51:27.567Z,8.27
2022-08-23T11:54:13.480Z,8.13
2022-08-23T11:56:58.542Z,8.83
2022-08-23T12:00:07.161Z,8.57
2022-08-23T12:02:38.933Z,8.57
2022-08-23T12:05:18.153Z,8.48
2022-08-23T12:07:54.035Z,8.77
2022-08-23T12:10:42.223Z,7.75
2022-08-23T12:13:18.840Z,8.47
2022-08-23T12:16:05.526Z,7.87
2022-08-23T12:18:47.630Z,7.95
2022-08-23T12:21:27.781Z,7.90
2022-08-23T12:24:02.851Z,7.93
2022-08-23T12:26:43.565Z,7.72
2022-08-23T12:29:41.858Z,7.95
2022-08-23T12:32:48.598Z,7.12
2022-08-23T12:35:40.825Z,7.53
2022-08-23T12:38:18.687Z,6.93
2022-08-23T12:40:50.714Z,7.30
2022-08-23T12:43:26.984Z,7.15
2022-08-23T12:46:01.242Z,6.97
2022-08-23T12:48:33.748Z,7.07
2022-08-23T12:51:03.291Z,6.80
2022-08-23T12:53:45.359Z,6.43
2022-08-23T12:56:22.818Z,7.18
2022-08-23T12:59:05.109Z,7.40
2022-08-23T13:01:35.806Z,7.45
2022-08-23T13:04:11.189Z,7.45
2022-08-23T13:06:51.309Z,8.80
2022-08-23T13:09:27.354Z,8.57
2022-08-23T13:11:58.084Z,7.75
2022-08-23T13:14:31.176Z,8.48
2022-08-23T13:17:26.020Z,9.02
2022-08-23T13:19:59.162Z,9.03
2022-08-23T13:22:27.396Z,8.88
2022-08-23T13:25:28.020Z,8.27
2022-08-23T13:27:56.261Z,7.62
2022-08-23T13:30:27.392Z,7.53
2022-08-23T13:33:04.222Z,8.35
2022-08-23T13:35:43.276Z,8.43
2022-08-23T13:38:21.222Z,8.40
2022-08-23T13:41:35.597Z,8.13
2022-08-23T13:44:16.953Z,8.27
2022-08-23T13:46:48.180Z,7.80
2022-08-23T13:49:26.334Z,8.43
2022-08-23T13:52:32.987Z,7.93
2022-08-23T13:54:50.927Z,7.62
2022-08-23T13:57:22.487Z,7.37
2022-08-23T13:59:54.009Z,7.20
2022-08-23T14:02:24.249Z,7.30
2022-08-23T14:04:52.321Z,6.45
2022-08-23T14:07:20.727Z,7.15
2022-08-23T14:09:52.012Z,6.53
2022-08-23T14:12:25.400Z,7.03
2022-08-23T14:14:56.743Z,6.62
2022-08-23T14:17:25.317Z,7.30
2022-08-23T14:22:41.041Z,6.50
2022-08-23T14:25:10.095Z,6.70
2022-08-23T14:27:40.114Z,6.78
2022-08-23T14:30:13.240Z,6.45
2022-08-23T14:32:45.831Z,6.50
2022-08-23T14:35:16.874Z,6.40
2022-08-23T14:38:03.775Z,6.32
2022-08-23T14:40:33.740Z,6.20
2022-08-23T14:43:03.869Z,6.57
2022-08-23T14:45:32.969Z,6.72
2022-08-23T14:48:03.454Z,6.95
2022-08-23T14:50:37.909Z,6.78
2022-08-23T14:53:11.833Z,6.62
2022-08-23T14:56:02.426Z,6.50
2022-08-23T14:58:46.070Z,6.22
2022-08-23T15:01:20.243Z,6.57
2022-08-23T15:03:51.412Z,6.37
2022-08-23T15:06:21.186Z,6.10
2022-08-23T15:08:53.536Z,5.70
2022-08-23T15:14:12.456Z,6.40
2022-08-23T15:16:40.327Z,6.45
2022-08-23T15:19:10.434Z,6.22
2022-08-23T15:21:38.569Z,5.85
2022-08-23T15:24:07.058Z,6.40
2022-08-23T15:26:35.167Z,6.15
2022-08-23T15:29:03.393Z,6.25
2022-08-23T15:31:31.298Z,6.10
2022-08-23T15:34:01.032Z,5.90
2022-08-23T15:36:35.315Z,5.95
2022-08-23T15:39:03.073Z,5.80
2022-08-23T15:41:32.035Z,5.85
2022-08-23T15:43:59.814Z,5.97
2022-08-23T15:46:27.638Z,5.73
2022-08-23T15:49:04.715Z,5.82
2022-08-23T15:51:35.431Z,6.17
2022-08-23T15:54:05.505Z,6.00
2022-08-23T15:56:43.955Z,5.80
2022-08-23T15:59:19.402Z,5.97
2022-08-23T16:01:48.825Z,6.00
2022-08-23T16:04:18.209Z,5.85
2022-08-23T16:06:46.591Z,5.90
2022-08-23T16:09:24.011Z,5.68
2022-08-23T16:11:54.329Z,5.75
2022-08-23T16:14:28.463Z,5.85
2022-08-23T16:16:57.098Z,5.90
2022-08-23T16:19:27.184Z,5.82
2022-08-23T16:21:59.347Z,5.55
2022-08-23T16:24:36.460Z,5.60
2022-08-23T16:27:08.864Z,5.87
2022-08-23T16:29:39.515Z,5.72
2022-08-23T16:32:08.431Z,6.00
2022-08-23T16:34:36.221Z,5.40
2022-08-23T16:37:08.112Z,5.62
2022-08-23T16:39:37.589Z,5.72
2022-08-23T16:42:11.122Z,5.62
2022-08-23T16:44:39.459Z,5.50
2022-08-23T16:47:10.636Z,5.55
2022-08-23T16:49:39.161Z,5.40
2022-08-23T16:52:08.223Z,5.57
2022-08-23T16:54:36.754Z,5.60
2022-08-23T16:57:04.780Z,5.70
2022-08-23T16:59:36.175Z,5.90
2022-08-23T17:02:11.397Z,5.57
2022-08-23T17:04:42.966Z,5.20
2022-08-23T17:07:10.709Z,5.75
2022-08-23T17:09:38.474Z,5.50
2022-08-23T17:12:07.028Z,5.43
2022-08-23T17:14:34.587Z,5.80
2022-08-23T17:17:03.811Z,5.62
2022-08-23T17:19:31.726Z,5.57
2022-08-23T17:22:00.150Z,5.40
2022-08-23T17:24:27.960Z,5.30
2022-08-23T17:26:56.796Z,5.53
2022-08-23T17:29:24.688Z,5.43
2022-08-23T17:31:52.407Z,5.37
2022-08-23T17:34:21.206Z,5.57
2022-08-23T17:36:52.378Z,5.45
2022-08-23T17:39:32.232Z,5.75
2022-08-23T17:42:04.001Z,5.12
2022-08-23T17:44:36.897Z,5.35
2022-08-23T17:47:07.705Z,5.18
2022-08-23T17:49:36.972Z,5.20
2022-08-23T17:52:15.517Z,5.00
2022-08-23T17:54:43.579Z,5.10
2022-08-23T17:57:11.721Z,5.15
2022-08-23T17:59:41.751Z,5.70
2022-08-23T18:02:09.702Z,5.20
2022-08-23T18:04:38.941Z,5.65
2022-08-23T18:07:08.249Z,5.30
2022-08-23T18:09:46.497Z,5.18
2022-08-23T18:12:17.294Z,4.90
2022-08-23T18:14:52.640Z,5.35
2022-08-23T18:17:22.581Z,5.18
2022-08-23T18:19:51.242Z,5.12
2022-08-23T18:22:24.453Z,5.00
2022-08-23T18:24:53.323Z,5.03
2022-08-23T18:27:43.049Z,5.40
2022-08-23T18:30:16.828Z,5.22
2022-08-23T18:32:51.755Z,4.87
2022-08-23T18:35:23.168Z,5.10
2022-08-23T18:37:53.081Z,4.85
2022-08-23T18:40:21.725Z,4.68
2022-08-23T18:42:54.563Z,4.80
2022-08-23T18:45:32.105Z,4.82
2022-08-23T18:48:00.450Z,4.95
2022-08-23T18:50:41.707Z,4.83
2022-08-23T18:53:20.065Z,5.00
2022-08-23T18:55:50.461Z,4.78
2022-08-23T18:58:20.223Z,4.90
2022-08-23T19:00:50.909Z,4.95
2022-08-23T19:03:19.740Z,4.75
2022-08-23T19:05:50.531Z,4.67
2022-08-23T19:08:21.946Z,5.00
2022-08-23T19:10:49.917Z,4.68
2022-08-23T19:13:18.416Z,4.85
2022-08-23T19:15:53.284Z,4.60
2022-08-23T19:18:21.733Z,5.07
2022-08-23T19:20:50.100Z,5.20
2022-08-23T19:23:26.202Z,5.07
2022-08-23T19:25:59.454Z,5.20
2022-08-23T19:28:28.316Z,4.50
2022-08-23T19:30:56.979Z,4.72
2022-08-23T19:33:25.746Z,5.22
2022-08-23T19:35:54.125Z,5.40
2022-08-23T19:38:29.735Z,4.82
2022-08-23T19:40:58.660Z,4.93
2022-08-23T19:43:27.366Z,5.10
2022-08-23T19:45:59.902Z,4.93
2022-08-23T19:48:28.559Z,5.10
2022-08-23T19:50:56.519Z,5.07
2022-08-23T19:53:24.652Z,5.10
2022-08-23T19:55:53.137Z,5.10
2022-08-23T19:58:31.143Z,5.07
2022-08-23T20:01:05.335Z,4.93
2022-08-23T20:03:33.894Z,5.00
2022-08-23T20:06:02.914Z,5.00
2022-08-23T20:08:32.766Z,5.40
2022-08-23T20:11:01.784Z,5.20
2022-08-23T20:13:30.520Z,5.00
2022-08-23T20:15:58.673Z,5.18
2022-08-23T20:18:30.212Z,4.95
2022-08-23T20:21:05.189Z,5.05
2022-08-23T20:23:51.958Z,4.95
2022-08-23T20:26:22.779Z,5.12
2022-08-23T20:28:59.639Z,5.70
2022-08-23T20:31:35.799Z,5.37
2022-08-23T20:34:05.432Z,5.00
2022-08-23T20:36:33.674Z,5.15
2022-08-23T20:39:02.189Z,4.87
2022-08-23T20:41:39.474Z,5.40
2022-08-23T20:44:08.807Z,5.28
2022-08-23T20:46:39.777Z,5.20
2022-08-23T20:49:13.003Z,4.75
2022-08-23T20:51:41.410Z,5.10
2022-08-23T20:54:10.084Z,5.18
2022-08-23T20:56:39.182Z,5.37
2022-08-23T20:59:14.773Z,5.20
2022-08-23T21:01:44.725Z,5.00
2022-08-23T21:04:13.230Z,5.10
2022-08-23T21:06:51.686Z,5.30
2022-08-23T21:09:29.370Z,5.45
2022-08-23T21:11:58.223Z,5.18
2022-08-23T21:14:26.144Z,5.00
2022-08-23T21:16:56.613Z,5.37
2022-08-23T21:19:30.379Z,5.57
2022-08-23T21:21:58.637Z,5.60
2022-08-23T21:24:26.478Z,5.80
2022-08-23T21:26:54.185Z,6.00
2022-08-23T21:29:22.213Z,5.90
2022-08-23T21:31:49.800Z,5.75
2022-08-23T21:34:19.918Z,5.95
2022-08-23T21:36:47.911Z,6.00
2022-08-23T21:39:15.850Z,6.18
2022-08-23T21:41:49.304Z,6.07
2022-08-23T21:44:20.365Z,5.90
2022-08-23T21:46:50.771Z,6.00
2022-08-23T21:49:24.239Z,6.20
2022-08-23T21:51:56.037Z,6.35
2022-08-23T21:54:24.677Z,6.45
2022-08-23T21:56:55.945Z,6.35
2022-08-23T21:59:26.895Z,6.00
2022-08-23T22:01:54.818Z,6.20
2022-08-23T22:04:23.398Z,6.55
2022-08-23T22:06:51.000Z,6.40
2022-08-23T22:09:25.691Z,6.50
2022-08-23T22:12:00.380Z,6.45
2022-08-23T22:14:31.377Z,6.85
2022-08-23T22:17:00.756Z,6.53
2022-08-23T22:19:29.370Z,6.90
2022-08-23T22:21:57.262Z,6.90
2022-08-23T22:24:26.334Z,6.35
2022-08-23T22:26:55.550Z,7.12
2022-08-23T22:29:23.717Z,7.05
2022-08-23T22:31:51.969Z,7.40
2022-08-23T22:34:25.732Z,6.90
2022-08-23T22:36:55.848Z,6.87
2022-08-23T22:39:24.046Z,7.30
2022-08-23T22:41:53.792Z,7.20
2022-08-23T22:44:22.531Z,7.12
2022-08-23T22:46:51.967Z,7.40
2022-08-23T22:49:20.193Z,7.53
2022-08-23T22:51:52.074Z,7.27
2022-08-23T22:54:25.318Z,8.27
2022-08-23T22:56:56.513Z,7.78
2022-08-23T22:59:27.647Z,8.00
2022-08-23T23:02:03.513Z,7.87
2022-08-23T23:04:32.933Z,7.50
2022-08-23T23:07:01.400Z,7.67
2022-08-23T23:09:29.305Z,8.18
2022-08-23T23:11:57.561Z,7.43
2022-08-23T23:14:28.979Z,7.40
2022-08-23T23:16:57.103Z,7.75
2022-08-23T23:19:47.293Z,7.43
2022-08-23T23:22:15.567Z,7.95
2022-08-23T23:24:45.674Z,7.37
2022-08-23T23:27:16.599Z,7.85
2022-08-23T23:29:44.746Z,7.93
2022-08-23T23:32:12.296Z,7.55
2022-08-23T23:34:40.371Z,7.60
2022-08-23T23:37:08.538Z,8.13
2022-08-23T23:39:36.369Z,7.93
2022-08-23T23:42:04.221Z,8.13
2022-08-23T23:44:32.371Z,8.63
2022-08-23T23:47:01.964Z,8.18
2022-08-23T23:49:33.800Z,8.50
2022-08-23T23:52:04.932Z,8.77
2022-08-23T23:54:34.105Z,9.18
2022-08-23T23:57:03.067Z,9.30
2022-08-23T23:59:31.590Z,9.90
